sensor_id;sensor_type;location;lat;lon;timestamp;temperature;humidity
15481;DHT22;7842;50.904;6.670;2022-12-10T00:01:28;1.00;99.90
15481;DHT22;7842;50.904;6.670;2022-12-10T00:03:54;1.00;99.90
15481;DHT22;7842;50.904;6.670;2022-12-10T00:06:24;1.10;99.90
15481;DHT22;7842;50.904;6.670;2022-12-10T00:08:50;1.10;99.90
15481;DHT22;7842;50.904;6.670;2022-12-10T00:11:17;1.10;99.90
15481;DHT22;7842;50.904;6.670;2022-12-10T00:13:44;1.10;99.90
15481;DHT22;7842;50.904;6.670;2022-12-10T00:16:11;1.10;99.90
15481;DHT22;7842;50.904;6.670;2022-12-10T00:18:38;1.00;99.90
15481;DHT22;7842;50.904;6.670;2022-12-10T00:21:06;0.90;99.90
15481;DHT22;7842;50.904;6.670;2022-12-10T00:23:32;0.90;99.90
15481;DHT22;7842;50.904;6.670;2022-12-10T00:26:16;0.80;99.90
15481;DHT22;7842;50.904;6.670;2022-12-10T00:28:42;0.80;99.90
15481;DHT22;7842;50.904;6.670;2022-12-10T00:31:11;0.90;99.90
15481;DHT22;7842;50.904;6.670;2022-12-10T00:33:37;0.90;99.90
15481;DHT22;7842;50.904;6.670;2022-12-10T00:36:09;0.90;99.90
15481;DHT22;7842;50.904;6.670;2022-12-10T00:38:35;0.90;99.90
15481;DHT22;7842;50.904;6.670;2022-12-10T00:41:02;0.80;99.90
15481;DHT22;7842;50.904;6.670;2022-12-10T00:43:28;0.70;99.90
15481;DHT22;7842;50.904;6.670;2022-12-10T00:45:54;0.80;99.90
15481;DHT22;7842;50.904;6.670;2022-12-10T00:48:20;0.60;99.90
15481;DHT22;7842;50.904;6.670;2022-12-10T00:50:58;0.60;99.90
15481;DHT22;7842;50.904;6.670;2022-12-10T00:53:25;0.50;99.90
15481;DHT22;7842;50.904;6.670;2022-12-10T00:55:51;0.50;99.90
15481;DHT22;7842;50.904;6.670;2022-12-10T00:58:17;0.40;99.90
15481;DHT22;7842;50.904;6.670;2022-12-10T01:00:43;0.40;99.90
15481;DHT22;7842;50.904;6.670;2022-12-10T01:03:08;0.40;99.90
15481;DHT22;7842;50.904;6.670;2022-12-10T01:05:34;0.40;99.90
15481;DHT22;7842;50.904;6.670;2022-12-10T01:07:59;0.40;99.90
15481;DHT22;7842;50.904;6.670;2022-12-10T01:10:25;0.40;99.90
15481;DHT22;7842;50.904;6.670;2022-12-10T01:12:50;0.30;99.90
15481;DHT22;7842;50.904;6.670;2022-12-10T01:15:16;0.30;99.90
15481;DHT22;7842;50.904;6.670;2022-12-10T01:17:42;0.30;99.90
15481;DHT22;7842;50.904;6.670;2022-12-10T01:20:07;0.30;99.90
15481;DHT22;7842;50.904;6.670;2022-12-10T01:22:33;0.30;99.90
15481;DHT22;7842;50.904;6.670;2022-12-10T01:24:59;0.30;99.90
15481;DHT22;7842;50.904;6.670;2022-12-10T01:27:24;0.40;99.90
15481;DHT22;7842;50.904;6.670;2022-12-10T01:29:50;0.20;99.90
15481;DHT22;7842;50.904;6.670;2022-12-10T01:32:15;0.20;99.90
15481;DHT22;7842;50.904;6.670;2022-12-10T01:34:41;0.20;99.90
15481;DHT22;7842;50.904;6.670;2022-12-10T01:37:06;0.20;99.90
15481;DHT22;7842;50.904;6.670;2022-12-10T01:39:32;0.20;99.90
15481;DHT22;7842;50.904;6.670;2022-12-10T01:41:59;0.30;99.90
15481;DHT22;7842;50.904;6.670;2022-12-10T01:46:55;0.30;99.90
15481;DHT22;7842;50.904;6.670;2022-12-10T01:49:37;0.20;99.90
15481;DHT22;7842;50.904;6.670;2022-12-10T01:52:05;0.20;99.90
15481;DHT22;7842;50.904;6.670;2022-12-10T01:54:40;0.10;99.90
15481;DHT22;7842;50.904;6.670;2022-12-10T01:57:27;0.10;99.90
15481;DHT22;7842;50.904;6.670;2022-12-10T01:59:57;0.10;99.90
15481;DHT22;7842;50.904;6.670;2022-12-10T02:02:33;0.10;99.90
15481;DHT22;7842;50.904;6.670;2022-12-10T02:07:59;0.00;99.90
15481;DHT22;7842;50.904;6.670;2022-12-10T02:10:44;0.00;99.90
15481;DHT22;7842;50.904;6.670;2022-12-10T02:15:51;0.00;99.90
15481;DHT22;7842;50.904;6.670;2022-12-10T02:18:34;0.10;99.90
15481;DHT22;7842;50.904;6.670;2022-12-10T02:21:06;0.10;99.90
15481;DHT22;7842;50.904;6.670;2022-12-10T02:23:38;0.10;99.90
15481;DHT22;7842;50.904;6.670;2022-12-10T02:29:05;0.20;99.90
15481;DHT22;7842;50.904;6.670;2022-12-10T02:31:32;0.20;99.90
15481;DHT22;7842;50.904;6.670;2022-12-10T02:34:00;0.00;99.90
15481;DHT22;7842;50.904;6.670;2022-12-10T02:36:29;0.10;99.90
15481;DHT22;7842;50.904;6.670;2022-12-10T02:39:00;0.10;99.90
15481;DHT22;7842;50.904;6.670;2022-12-10T02:41:30;0.20;99.90
15481;DHT22;7842;50.904;6.670;2022-12-10T02:43:59;0.30;99.90
15481;DHT22;7842;50.904;6.670;2022-12-10T02:46:26;0.30;99.90
15481;DHT22;7842;50.904;6.670;2022-12-10T02:48:54;0.30;99.90
15481;DHT22;7842;50.904;6.670;2022-12-10T02:51:20;0.30;99.90
15481;DHT22;7842;50.904;6.670;2022-12-10T02:53:46;0.30;99.90
15481;DHT22;7842;50.904;6.670;2022-12-10T02:56:27;0.20;99.90
15481;DHT22;7842;50.904;6.670;2022-12-10T03:01:57;0.30;99.90
15481;DHT22;7842;50.904;6.670;2022-12-10T03:04:57;0.30;99.90
15481;DHT22;7842;50.904;6.670;2022-12-10T03:07:38;0.40;99.90
15481;DHT22;7842;50.904;6.670;2022-12-10T03:10:17;0.30;99.90
15481;DHT22;7842;50.904;6.670;2022-12-10T03:12:54;0.30;99.90
15481;DHT22;7842;50.904;6.670;2022-12-10T03:15:25;0.30;99.90
15481;DHT22;7842;50.904;6.670;2022-12-10T03:17:51;0.30;99.90
15481;DHT22;7842;50.904;6.670;2022-12-10T03:20:18;0.20;99.90
15481;DHT22;7842;50.904;6.670;2022-12-10T03:22:46;0.30;99.90
15481;DHT22;7842;50.904;6.670;2022-12-10T03:25:15;0.30;99.90
15481;DHT22;7842;50.904;6.670;2022-12-10T03:27:43;0.30;99.90
15481;DHT22;7842;50.904;6.670;2022-12-10T03:30:11;0.30;99.90
15481;DHT22;7842;50.904;6.670;2022-12-10T03:32:37;0.30;99.90
15481;DHT22;7842;50.904;6.670;2022-12-10T03:35:03;0.20;99.90
15481;DHT22;7842;50.904;6.670;2022-12-10T03:37:30;0.20;99.90
15481;DHT22;7842;50.904;6.670;2022-12-10T03:39:56;0.20;99.90
15481;DHT22;7842;50.904;6.670;2022-12-10T03:42:23;0.20;99.90
15481;DHT22;7842;50.904;6.670;2022-12-10T03:44:50;0.20;99.90
15481;DHT22;7842;50.904;6.670;2022-12-10T03:47:17;0.10;99.90
15481;DHT22;7842;50.904;6.670;2022-12-10T03:49:43;0.00;99.90
15481;DHT22;7842;50.904;6.670;2022-12-10T03:52:09;0.00;99.90
15481;DHT22;7842;50.904;6.670;2022-12-10T03:54:35;0.00;99.90
15481;DHT22;7842;50.904;6.670;2022-12-10T03:57:01;0.10;99.90
15481;DHT22;7842;50.904;6.670;2022-12-10T03:59:26;0.00;99.90
15481;DHT22;7842;50.904;6.670;2022-12-10T04:01:52;-0.10;99.90
15481;DHT22;7842;50.904;6.670;2022-12-10T04:04:18;-0.10;99.90
15481;DHT22;7842;50.904;6.670;2022-12-10T04:06:43;-0.20;99.90
15481;DHT22;7842;50.904;6.670;2022-12-10T04:09:14;-0.20;99.90
15481;DHT22;7842;50.904;6.670;2022-12-10T04:11:39;0.00;99.90
15481;DHT22;7842;50.904;6.670;2022-12-10T04:14:05;0.10;99.90
15481;DHT22;7842;50.904;6.670;2022-12-10T04:16:49;-0.20;99.90
15481;DHT22;7842;50.904;6.670;2022-12-10T04:19:16;-0.20;99.90
15481;DHT22;7842;50.904;6.670;2022-12-10T04:21:43;-0.10;99.90
15481;DHT22;7842;50.904;6.670;2022-12-10T04:24:30;-0.20;99.90
15481;DHT22;7842;50.904;6.670;2022-12-10T04:29:51;-0.30;99.90
15481;DHT22;7842;50.904;6.670;2022-12-10T04:32:17;-0.30;99.90
15481;DHT22;7842;50.904;6.670;2022-12-10T04:34:43;-0.30;99.90
15481;DHT22;7842;50.904;6.670;2022-12-10T04:37:09;-0.40;99.90
15481;DHT22;7842;50.904;6.670;2022-12-10T04:39:37;-0.40;99.90
15481;DHT22;7842;50.904;6.670;2022-12-10T04:42:03;-0.40;99.90
15481;DHT22;7842;50.904;6.670;2022-12-10T04:44:29;-0.30;99.90
15481;DHT22;7842;50.904;6.670;2022-12-10T04:46:54;-0.30;99.90
15481;DHT22;7842;50.904;6.670;2022-12-10T04:49:20;-0.30;99.90
15481;DHT22;7842;50.904;6.670;2022-12-10T04:51:46;-0.30;99.90
15481;DHT22;7842;50.904;6.670;2022-12-10T04:54:13;-0.30;99.90
15481;DHT22;7842;50.904;6.670;2022-12-10T04:56:39;-0.30;99.90
15481;DHT22;7842;50.904;6.670;2022-12-10T04:59:06;-0.30;99.90
15481;DHT22;7842;50.904;6.670;2022-12-10T05:01:32;-0.30;99.90
15481;DHT22;7842;50.904;6.670;2022-12-10T05:03:59;-0.30;99.90
15481;DHT22;7842;50.904;6.670;2022-12-10T05:06:25;-0.20;99.90
15481;DHT22;7842;50.904;6.670;2022-12-10T05:08:51;-0.20;99.90
15481;DHT22;7842;50.904;6.670;2022-12-10T05:11:19;-0.10;99.90
15481;DHT22;7842;50.904;6.670;2022-12-10T05:13:45;-0.10;99.90
15481;DHT22;7842;50.904;6.670;2022-12-10T05:16:13;-0.10;99.90
15481;DHT22;7842;50.904;6.670;2022-12-10T05:18:39;-0.10;99.90
15481;DHT22;7842;50.904;6.670;2022-12-10T05:21:08;-0.10;99.90
15481;DHT22;7842;50.904;6.670;2022-12-10T05:23:39;-0.10;99.90
15481;DHT22;7842;50.904;6.670;2022-12-10T05:26:11;-0.10;99.90
15481;DHT22;7842;50.904;6.670;2022-12-10T05:28:49;0.00;99.90
15481;DHT22;7842;50.904;6.670;2022-12-10T05:31:23;-0.10;99.90
15481;DHT22;7842;50.904;6.670;2022-12-10T05:33:50;-0.10;99.90
15481;DHT22;7842;50.904;6.670;2022-12-10T05:36:18;0.00;99.90
15481;DHT22;7842;50.904;6.670;2022-12-10T05:38:44;0.00;99.90
15481;DHT22;7842;50.904;6.670;2022-12-10T05:41:20;0.00;99.90
15481;DHT22;7842;50.904;6.670;2022-12-10T05:43:47;0.00;99.90
15481;DHT22;7842;50.904;6.670;2022-12-10T05:46:16;0.00;99.90
15481;DHT22;7842;50.904;6.670;2022-12-10T05:48:42;0.10;99.90
15481;DHT22;7842;50.904;6.670;2022-12-10T05:51:12;0.10;99.90
15481;DHT22;7842;50.904;6.670;2022-12-10T05:53:38;0.10;99.90
15481;DHT22;7842;50.904;6.670;2022-12-10T05:56:06;0.20;99.90
15481;DHT22;7842;50.904;6.670;2022-12-10T05:58:33;0.20;99.90
15481;DHT22;7842;50.904;6.670;2022-12-10T06:00:59;0.20;99.90
15481;DHT22;7842;50.904;6.670;2022-12-10T06:03:27;0.20;99.90
15481;DHT22;7842;50.904;6.670;2022-12-10T06:05:53;0.20;99.90
15481;DHT22;7842;50.904;6.670;2022-12-10T06:08:19;0.20;99.90
15481;DHT22;7842;50.904;6.670;2022-12-10T06:10:44;0.20;99.90
15481;DHT22;7842;50.904;6.670;2022-12-10T06:13:10;0.10;99.90
15481;DHT22;7842;50.904;6.670;2022-12-10T06:15:39;0.10;99.90
15481;DHT22;7842;50.904;6.670;2022-12-10T06:18:05;0.10;99.90
15481;DHT22;7842;50.904;6.670;2022-12-10T06:20:30;0.10;99.90
15481;DHT22;7842;50.904;6.670;2022-12-10T06:22:56;0.10;99.90
15481;DHT22;7842;50.904;6.670;2022-12-10T06:25:21;0.10;99.90
15481;DHT22;7842;50.904;6.670;2022-12-10T06:27:47;0.10;99.90
15481;DHT22;7842;50.904;6.670;2022-12-10T06:30:13;0.10;99.90
15481;DHT22;7842;50.904;6.670;2022-12-10T06:32:38;0.10;99.90
15481;DHT22;7842;50.904;6.670;2022-12-10T06:35:05;0.00;99.90
15481;DHT22;7842;50.904;6.670;2022-12-10T06:37:31;0.10;99.90
15481;DHT22;7842;50.904;6.670;2022-12-10T06:39:57;0.10;99.90
15481;DHT22;7842;50.904;6.670;2022-12-10T06:42:22;0.10;99.90
15481;DHT22;7842;50.904;6.670;2022-12-10T06:44:48;0.10;99.90
15481;DHT22;7842;50.904;6.670;2022-12-10T06:47:13;0.10;99.90
15481;DHT22;7842;50.904;6.670;2022-12-10T06:49:40;0.10;99.90
15481;DHT22;7842;50.904;6.670;2022-12-10T06:52:06;0.10;99.90
15481;DHT22;7842;50.904;6.670;2022-12-10T06:54:32;0.10;99.90
15481;DHT22;7842;50.904;6.670;2022-12-10T06:56:58;0.10;99.90
15481;DHT22;7842;50.904;6.670;2022-12-10T06:59:23;0.10;99.90
15481;DHT22;7842;50.904;6.670;2022-12-10T07:01:49;0.10;99.90
15481;DHT22;7842;50.904;6.670;2022-12-10T07:04:15;0.10;99.90
15481;DHT22;7842;50.904;6.670;2022-12-10T07:06:40;0.10;99.90
15481;DHT22;7842;50.904;6.670;2022-12-10T07:09:06;0.10;99.90
15481;DHT22;7842;50.904;6.670;2022-12-10T07:11:32;0.10;99.90
15481;DHT22;7842;50.904;6.670;2022-12-10T07:13:58;0.10;99.90
15481;DHT22;7842;50.904;6.670;2022-12-10T07:16:26;0.10;99.90
15481;DHT22;7842;50.904;6.670;2022-12-10T07:18:53;0.00;99.90
15481;DHT22;7842;50.904;6.670;2022-12-10T07:21:28;0.00;99.90
15481;DHT22;7842;50.904;6.670;2022-12-10T07:23:56;0.00;99.90
15481;DHT22;7842;50.904;6.670;2022-12-10T07:26:29;0.00;99.90
15481;DHT22;7842;50.904;6.670;2022-12-10T07:28:54;0.00;99.90
15481;DHT22;7842;50.904;6.670;2022-12-10T07:31:21;0.00;99.90
15481;DHT22;7842;50.904;6.670;2022-12-10T07:33:47;0.00;99.90
15481;DHT22;7842;50.904;6.670;2022-12-10T07:36:13;0.00;99.90
15481;DHT22;7842;50.904;6.670;2022-12-10T07:38:40;0.10;99.90
15481;DHT22;7842;50.904;6.670;2022-12-10T07:41:09;0.10;99.90
15481;DHT22;7842;50.904;6.670;2022-12-10T07:43:36;0.10;99.90
15481;DHT22;7842;50.904;6.670;2022-12-10T07:46:08;0.10;99.90
15481;DHT22;7842;50.904;6.670;2022-12-10T07:48:35;0.20;99.90
15481;DHT22;7842;50.904;6.670;2022-12-10T07:51:01;0.20;99.90
15481;DHT22;7842;50.904;6.670;2022-12-10T07:53:26;0.30;99.90
15481;DHT22;7842;50.904;6.670;2022-12-10T07:55:52;0.30;99.90
15481;DHT22;7842;50.904;6.670;2022-12-10T07:58:18;0.20;99.90
15481;DHT22;7842;50.904;6.670;2022-12-10T08:00:43;0.30;99.90
15481;DHT22;7842;50.904;6.670;2022-12-10T08:03:09;0.30;99.90
15481;DHT22;7842;50.904;6.670;2022-12-10T08:05:34;0.40;99.90
15481;DHT22;7842;50.904;6.670;2022-12-10T08:08:00;0.40;99.90
15481;DHT22;7842;50.904;6.670;2022-12-10T08:10:25;0.40;99.90
15481;DHT22;7842;50.904;6.670;2022-12-10T08:12:51;0.40;99.90
15481;DHT22;7842;50.904;6.670;2022-12-10T08:15:17;0.40;99.90
15481;DHT22;7842;50.904;6.670;2022-12-10T08:17:42;0.40;99.90
15481;DHT22;7842;50.904;6.670;2022-12-10T08:20:08;0.50;99.90
15481;DHT22;7842;50.904;6.670;2022-12-10T08:22:34;0.50;99.90
15481;DHT22;7842;50.904;6.670;2022-12-10T08:25:01;0.50;99.90
15481;DHT22;7842;50.904;6.670;2022-12-10T08:27:27;0.50;99.90
15481;DHT22;7842;50.904;6.670;2022-12-10T08:29:52;0.50;99.90
15481;DHT22;7842;50.904;6.670;2022-12-10T08:32:18;0.40;99.90
15481;DHT22;7842;50.904;6.670;2022-12-10T08:34:44;0.40;99.90
15481;DHT22;7842;50.904;6.670;2022-12-10T08:37:09;0.40;99.90
15481;DHT22;7842;50.904;6.670;2022-12-10T08:39:35;0.40;99.90
15481;DHT22;7842;50.904;6.670;2022-12-10T08:42:01;0.40;99.90
15481;DHT22;7842;50.904;6.670;2022-12-10T08:44:26;0.40;99.90
15481;DHT22;7842;50.904;6.670;2022-12-10T08:46:52;0.40;99.90
15481;DHT22;7842;50.904;6.670;2022-12-10T08:49:17;0.30;99.90
15481;DHT22;7842;50.904;6.670;2022-12-10T08:51:43;0.30;99.90
15481;DHT22;7842;50.904;6.670;2022-12-10T08:54:08;0.40;99.90
15481;DHT22;7842;50.904;6.670;2022-12-10T08:56:35;0.40;99.90
15481;DHT22;7842;50.904;6.670;2022-12-10T08:59:00;0.40;99.90
15481;DHT22;7842;50.904;6.670;2022-12-10T09:01:26;0.50;99.90
15481;DHT22;7842;50.904;6.670;2022-12-10T09:03:51;0.50;99.90
15481;DHT22;7842;50.904;6.670;2022-12-10T09:06:22;0.50;99.90
15481;DHT22;7842;50.904;6.670;2022-12-10T09:08:49;0.60;99.90
15481;DHT22;7842;50.904;6.670;2022-12-10T09:11:25;0.60;99.90
15481;DHT22;7842;50.904;6.670;2022-12-10T09:13:51;0.60;99.90
15481;DHT22;7842;50.904;6.670;2022-12-10T09:16:17;0.60;99.90
15481;DHT22;7842;50.904;6.670;2022-12-10T09:18:43;0.70;99.90
15481;DHT22;7842;50.904;6.670;2022-12-10T09:21:11;0.70;99.90
15481;DHT22;7842;50.904;6.670;2022-12-10T09:23:38;0.80;99.90
15481;DHT22;7842;50.904;6.670;2022-12-10T09:26:08;0.90;99.90
15481;DHT22;7842;50.904;6.670;2022-12-10T09:28:35;0.80;99.90
15481;DHT22;7842;50.904;6.670;2022-12-10T09:31:04;0.80;99.90
15481;DHT22;7842;50.904;6.670;2022-12-10T09:33:30;0.70;99.90
15481;DHT22;7842;50.904;6.670;2022-12-10T09:35:57;0.70;99.90
15481;DHT22;7842;50.904;6.670;2022-12-10T09:38:23;0.80;99.90
15481;DHT22;7842;50.904;6.670;2022-12-10T09:41:00;0.80;99.90
15481;DHT22;7842;50.904;6.670;2022-12-10T09:43:55;0.80;99.90
15481;DHT22;7842;50.904;6.670;2022-12-10T09:46:26;0.90;99.90
15481;DHT22;7842;50.904;6.670;2022-12-10T09:51:41;0.90;99.90
15481;DHT22;7842;50.904;6.670;2022-12-10T09:54:23;0.80;99.90
15481;DHT22;7842;50.904;6.670;2022-12-10T09:56:51;0.80;99.90
15481;DHT22;7842;50.904;6.670;2022-12-10T09:59:24;0.80;99.90
15481;DHT22;7842;50.904;6.670;2022-12-10T10:02:11;0.70;99.90
15481;DHT22;7842;50.904;6.670;2022-12-10T10:04:43;0.60;99.90
15481;DHT22;7842;50.904;6.670;2022-12-10T10:07:19;0.70;99.90
15481;DHT22;7842;50.904;6.670;2022-12-10T10:09:46;0.80;99.90
15481;DHT22;7842;50.904;6.670;2022-12-10T10:12:15;0.90;99.90
15481;DHT22;7842;50.904;6.670;2022-12-10T10:14:43;0.90;99.90
15481;DHT22;7842;50.904;6.670;2022-12-10T10:17:17;1.00;99.90
15481;DHT22;7842;50.904;6.670;2022-12-10T10:19:45;1.00;99.90
15481;DHT22;7842;50.904;6.670;2022-12-10T10:22:11;1.00;99.90
15481;DHT22;7842;50.904;6.670;2022-12-10T10:24:40;1.00;99.90
15481;DHT22;7842;50.904;6.670;2022-12-10T10:27:18;1.00;99.90
15481;DHT22;7842;50.904;6.670;2022-12-10T10:29:50;1.00;99.90
15481;DHT22;7842;50.904;6.670;2022-12-10T10:34:53;1.10;99.90
15481;DHT22;7842;50.904;6.670;2022-12-10T10:37:26;1.10;99.90
15481;DHT22;7842;50.904;6.670;2022-12-10T10:39:55;1.10;99.90
15481;DHT22;7842;50.904;6.670;2022-12-10T10:44:58;1.20;99.90
15481;DHT22;7842;50.904;6.670;2022-12-10T10:47:28;1.30;99.90
15481;DHT22;7842;50.904;6.670;2022-12-10T10:49:54;1.30;99.90
15481;DHT22;7842;50.904;6.670;2022-12-10T10:52:20;1.40;99.90
15481;DHT22;7842;50.904;6.670;2022-12-10T10:54:47;1.50;99.90
15481;DHT22;7842;50.904;6.670;2022-12-10T10:57:21;1.50;99.90
15481;DHT22;7842;50.904;6.670;2022-12-10T10:59:49;1.40;99.90
15481;DHT22;7842;50.904;6.670;2022-12-10T11:02:21;1.50;99.90
15481;DHT22;7842;50.904;6.670;2022-12-10T11:04:49;1.40;99.90
15481;DHT22;7842;50.904;6.670;2022-12-10T11:07:33;1.30;99.90
15481;DHT22;7842;50.904;6.670;2022-12-10T11:09:59;1.40;99.90
15481;DHT22;7842;50.904;6.670;2022-12-10T11:12:35;1.60;99.90
15481;DHT22;7842;50.904;6.670;2022-12-10T11:17:48;1.60;99.90
15481;DHT22;7842;50.904;6.670;2022-12-10T11:20:20;1.50;99.90
15481;DHT22;7842;50.904;6.670;2022-12-10T11:23:12;1.40;99.90
15481;DHT22;7842;50.904;6.670;2022-12-10T11:34:29;1.20;99.90
15481;DHT22;7842;50.904;6.670;2022-12-10T11:37:18;1.30;99.90
15481;DHT22;7842;50.904;6.670;2022-12-10T11:54:51;1.30;99.90
15481;DHT22;7842;50.904;6.670;2022-12-10T12:00:23;1.40;99.90
15481;DHT22;7842;50.904;6.670;2022-12-10T12:10:46;1.60;99.90
15481;DHT22;7842;50.904;6.670;2022-12-10T12:13:24;1.60;99.90
15481;DHT22;7842;50.904;6.670;2022-12-10T12:16:04;1.60;99.90
15481;DHT22;7842;50.904;6.670;2022-12-10T12:21:28;1.90;99.90
15481;DHT22;7842;50.904;6.670;2022-12-10T12:26:32;1.80;99.90
15481;DHT22;7842;50.904;6.670;2022-12-10T12:29:44;1.80;99.90
15481;DHT22;7842;50.904;6.670;2022-12-10T12:32:17;1.90;99.90
15481;DHT22;7842;50.904;6.670;2022-12-10T12:35:12;1.90;99.90
15481;DHT22;7842;50.904;6.670;2022-12-10T12:37:44;1.80;99.90
15481;DHT22;7842;50.904;6.670;2022-12-10T12:40:36;1.90;99.90
15481;DHT22;7842;50.904;6.670;2022-12-10T12:43:02;2.00;99.90
15481;DHT22;7842;50.904;6.670;2022-12-10T12:45:40;2.10;99.90
15481;DHT22;7842;50.904;6.670;2022-12-10T12:48:26;2.10;99.90
15481;DHT22;7842;50.904;6.670;2022-12-10T12:51:15;2.10;99.90
15481;DHT22;7842;50.904;6.670;2022-12-10T12:53:41;2.00;99.90
15481;DHT22;7842;50.904;6.670;2022-12-10T13:05:18;2.10;99.90
15481;DHT22;7842;50.904;6.670;2022-12-10T13:10:50;2.20;99.90
15481;DHT22;7842;50.904;6.670;2022-12-10T13:13:23;2.30;99.90
15481;DHT22;7842;50.904;6.670;2022-12-10T13:15:49;2.40;99.90
15481;DHT22;7842;50.904;6.670;2022-12-10T13:20:52;2.10;99.90
15481;DHT22;7842;50.904;6.670;2022-12-10T13:23:48;2.00;99.90
15481;DHT22;7842;50.904;6.670;2022-12-10T13:26:24;1.90;99.90
15481;DHT22;7842;50.904;6.670;2022-12-10T13:28:52;2.00;99.90
15481;DHT22;7842;50.904;6.670;2022-12-10T13:39:22;2.10;99.90
15481;DHT22;7842;50.904;6.670;2022-12-10T13:47:46;2.40;99.90
15481;DHT22;7842;50.904;6.670;2022-12-10T14:01:20;2.30;99.90
15481;DHT22;7842;50.904;6.670;2022-12-10T14:06:40;2.30;99.90
15481;DHT22;7842;50.904;6.670;2022-12-10T14:12:16;2.30;99.90
15481;DHT22;7842;50.904;6.670;2022-12-10T14:15:14;2.10;99.90
15481;DHT22;7842;50.904;6.670;2022-12-10T14:17:43;2.10;99.90
15481;DHT22;7842;50.904;6.670;2022-12-10T14:20:21;2.00;99.90
15481;DHT22;7842;50.904;6.670;2022-12-10T14:22:53;2.00;99.90
15481;DHT22;7842;50.904;6.670;2022-12-10T14:25:44;2.10;99.90
15481;DHT22;7842;50.904;6.670;2022-12-10T14:28:13;2.10;99.90
15481;DHT22;7842;50.904;6.670;2022-12-10T14:30:43;2.10;99.90
15481;DHT22;7842;50.904;6.670;2022-12-10T14:33:14;2.10;99.90
15481;DHT22;7842;50.904;6.670;2022-12-10T14:35:41;2.10;99.90
15481;DHT22;7842;50.904;6.670;2022-12-10T14:38:30;2.00;99.90
15481;DHT22;7842;50.904;6.670;2022-12-10T14:40:58;2.00;99.90
15481;DHT22;7842;50.904;6.670;2022-12-10T14:43:35;1.90;99.90
15481;DHT22;7842;50.904;6.670;2022-12-10T14:46:04;1.90;99.90
15481;DHT22;7842;50.904;6.670;2022-12-10T14:48:29;1.90;99.90
15481;DHT22;7842;50.904;6.670;2022-12-10T14:51:10;1.90;99.90
15481;DHT22;7842;50.904;6.670;2022-12-10T14:53:37;1.80;99.90
15481;DHT22;7842;50.904;6.670;2022-12-10T14:56:04;1.70;99.90
15481;DHT22;7842;50.904;6.670;2022-12-10T14:58:38;1.70;99.90
15481;DHT22;7842;50.904;6.670;2022-12-10T15:01:05;1.60;99.90
15481;DHT22;7842;50.904;6.670;2022-12-10T15:03:35;1.50;99.90
15481;DHT22;7842;50.904;6.670;2022-12-10T15:06:09;1.50;99.90
15481;DHT22;7842;50.904;6.670;2022-12-10T15:08:35;1.40;99.90
15481;DHT22;7842;50.904;6.670;2022-12-10T15:11:01;1.40;99.90
15481;DHT22;7842;50.904;6.670;2022-12-10T15:13:29;1.30;99.90
15481;DHT22;7842;50.904;6.670;2022-12-10T15:15:57;1.30;99.90
15481;DHT22;7842;50.904;6.670;2022-12-10T15:18:30;1.20;99.90
15481;DHT22;7842;50.904;6.670;2022-12-10T15:21:42;1.10;99.90
15481;DHT22;7842;50.904;6.670;2022-12-10T15:26:43;1.10;99.90
15481;DHT22;7842;50.904;6.670;2022-12-10T15:31:49;1.10;99.90
15481;DHT22;7842;50.904;6.670;2022-12-10T15:34:15;1.10;99.90
15481;DHT22;7842;50.904;6.670;2022-12-10T15:36:52;1.10;99.90
15481;DHT22;7842;50.904;6.670;2022-12-10T15:47:22;1.00;99.90
15481;DHT22;7842;50.904;6.670;2022-12-10T15:49:50;1.00;99.90
15481;DHT22;7842;50.904;6.670;2022-12-10T15:52:19;1.00;99.90
15481;DHT22;7842;50.904;6.670;2022-12-10T15:54:47;1.00;99.90
15481;DHT22;7842;50.904;6.670;2022-12-10T15:57:24;0.90;99.90
15481;DHT22;7842;50.904;6.670;2022-12-10T15:59:52;1.00;99.90
15481;DHT22;7842;50.904;6.670;2022-12-10T16:07:50;1.10;99.90
15481;DHT22;7842;50.904;6.670;2022-12-10T16:10:18;1.10;99.90
15481;DHT22;7842;50.904;6.670;2022-12-10T16:13:11;1.10;99.90
15481;DHT22;7842;50.904;6.670;2022-12-10T16:16:04;1.10;99.90
15481;DHT22;7842;50.904;6.670;2022-12-10T16:18:30;1.20;99.90
15481;DHT22;7842;50.904;6.670;2022-12-10T16:20:56;1.50;99.90
15481;DHT22;7842;50.904;6.670;2022-12-10T16:23:21;1.20;99.90
15481;DHT22;7842;50.904;6.670;2022-12-10T16:25:47;1.20;99.90
15481;DHT22;7842;50.904;6.670;2022-12-10T16:28:16;1.20;99.90
15481;DHT22;7842;50.904;6.670;2022-12-10T16:30:53;1.20;99.90
15481;DHT22;7842;50.904;6.670;2022-12-10T16:33:20;1.20;99.90
15481;DHT22;7842;50.904;6.670;2022-12-10T16:35:47;1.10;99.90
15481;DHT22;7842;50.904;6.670;2022-12-10T16:38:13;1.10;99.90
15481;DHT22;7842;50.904;6.670;2022-12-10T16:40:41;1.10;99.90
15481;DHT22;7842;50.904;6.670;2022-12-10T16:43:19;1.00;99.90
15481;DHT22;7842;50.904;6.670;2022-12-10T16:45:45;1.00;99.90
15481;DHT22;7842;50.904;6.670;2022-12-10T16:48:11;1.10;99.90
15481;DHT22;7842;50.904;6.670;2022-12-10T16:50:37;1.00;99.90
15481;DHT22;7842;50.904;6.670;2022-12-10T16:55:42;1.00;99.90
15481;DHT22;7842;50.904;6.670;2022-12-10T16:58:09;0.90;99.90
15481;DHT22;7842;50.904;6.670;2022-12-10T17:00:35;1.00;99.90
15481;DHT22;7842;50.904;6.670;2022-12-10T17:03:01;1.00;99.90
15481;DHT22;7842;50.904;6.670;2022-12-10T17:05:39;1.10;99.90
15481;DHT22;7842;50.904;6.670;2022-12-10T17:08:04;1.10;99.90
15481;DHT22;7842;50.904;6.670;2022-12-10T17:10:30;1.10;99.90
15481;DHT22;7842;50.904;6.670;2022-12-10T17:13:15;1.10;99.90
15481;DHT22;7842;50.904;6.670;2022-12-10T17:15:42;1.20;99.90
15481;DHT22;7842;50.904;6.670;2022-12-10T17:18:16;1.20;99.90
15481;DHT22;7842;50.904;6.670;2022-12-10T17:20:43;1.20;99.90
15481;DHT22;7842;50.904;6.670;2022-12-10T17:23:09;1.20;99.90
15481;DHT22;7842;50.904;6.670;2022-12-10T17:25:35;1.10;99.90
15481;DHT22;7842;50.904;6.670;2022-12-10T17:28:01;1.10;99.90
15481;DHT22;7842;50.904;6.670;2022-12-10T17:30:26;1.10;99.90
15481;DHT22;7842;50.904;6.670;2022-12-10T17:32:52;1.30;99.90
15481;DHT22;7842;50.904;6.670;2022-12-10T17:35:19;1.10;99.90
15481;DHT22;7842;50.904;6.670;2022-12-10T17:37:45;1.10;99.90
15481;DHT22;7842;50.904;6.670;2022-12-10T17:40:16;1.10;99.90
15481;DHT22;7842;50.904;6.670;2022-12-10T17:42:42;1.20;99.90
15481;DHT22;7842;50.904;6.670;2022-12-10T17:45:11;1.10;99.90
15481;DHT22;7842;50.904;6.670;2022-12-10T17:47:37;1.00;99.90
15481;DHT22;7842;50.904;6.670;2022-12-10T17:50:04;1.10;99.90
15481;DHT22;7842;50.904;6.670;2022-12-10T17:52:37;1.10;99.90
15481;DHT22;7842;50.904;6.670;2022-12-10T17:55:03;1.10;99.90
15481;DHT22;7842;50.904;6.670;2022-12-10T17:57:29;1.20;99.90
15481;DHT22;7842;50.904;6.670;2022-12-10T17:59:54;1.20;99.90
15481;DHT22;7842;50.904;6.670;2022-12-10T18:02:20;1.20;99.90
15481;DHT22;7842;50.904;6.670;2022-12-10T18:04:45;1.30;99.90
15481;DHT22;7842;50.904;6.670;2022-12-10T18:07:16;1.30;99.90
15481;DHT22;7842;50.904;6.670;2022-12-10T18:09:43;1.30;99.90
15481;DHT22;7842;50.904;6.670;2022-12-10T18:12:11;1.30;99.90
15481;DHT22;7842;50.904;6.670;2022-12-10T18:14:37;1.30;99.90
15481;DHT22;7842;50.904;6.670;2022-12-10T18:17:04;1.30;99.90
15481;DHT22;7842;50.904;6.670;2022-12-10T18:19:34;1.30;99.90
15481;DHT22;7842;50.904;6.670;2022-12-10T18:22:00;1.30;99.90
15481;DHT22;7842;50.904;6.670;2022-12-10T18:24:26;1.30;99.90
15481;DHT22;7842;50.904;6.670;2022-12-10T18:26:51;1.40;99.90
15481;DHT22;7842;50.904;6.670;2022-12-10T18:29:17;1.30;99.90